createdAt,value
2019-01-31T00:02:24.189Z,12.93
2019-01-31T00:05:05.393Z,14.87
2019-01-31T00:07:46.018Z,15.10
2019-01-31T00:10:27.993Z,13.93
2019-01-31T00:13:35.875Z,15.80
2019-01-31T00:16:44.593Z,16.23
2019-01-31T00:19:52.725Z,16.47
2019-01-31T00:22:33.564Z,14.57
2019-01-31T00:25:16.065Z,14.10
2019-01-31T00:27:58.630Z,14.93
2019-01-31T00:30:39.600Z,15.83
2019-01-31T00:33:20.678Z,15.70
2019-01-31T00:36:02.973Z,15.17
2019-01-31T00:38:44.797Z,12.77
2019-01-31T00:41:27.608Z,13.60
2019-01-31T00:44:08.376Z,15.03
2019-01-31T00:47:16.773Z,14.43
2019-01-31T00:50:24.491Z,13.57
2019-01-31T00:53:06.742Z,13.40
2019-01-31T01:02:09.272Z,14.67
2019-01-31T01:08:06.012Z,15.17
2019-01-31T01:10:48.621Z,10.97
2019-01-31T01:13:31.081Z,13.90
2019-01-31T01:16:12.947Z,10.90
2019-01-31T01:18:54.988Z,14.43
2019-01-31T01:21:37.429Z,8.97
2019-01-31T01:24:19.622Z,13.50
2019-01-31T01:27:01.971Z,16.17
2019-01-31T01:29:44.348Z,13.30
2019-01-31T01:32:25.564Z,13.73
2019-01-31T01:35:06.746Z,15.30
2019-01-31T01:37:49.032Z,14.27
2019-01-31T01:40:31.323Z,14.67
2019-01-31T01:43:13.572Z,13.70
2019-01-31T01:45:56.442Z,15.77
2019-01-31T01:51:32.051Z,15.03
2019-01-31T01:57:28.793Z,15.47
2019-01-31T02:00:37.415Z,16.00
2019-01-31T02:04:04.750Z,14.13
2019-01-31T02:06:47.183Z,14.10
2019-01-31T02:09:30.200Z,15.73
2019-01-31T02:12:10.782Z,14.67
2019-01-31T02:14:52.675Z,14.87
2019-01-31T02:17:35.194Z,14.50
2019-01-31T02:20:17.704Z,18.07
2019-01-31T02:22:59.381Z,14.03
2019-01-31T02:25:41.943Z,12.27
2019-01-31T02:28:24.351Z,15.10
2019-01-31T02:31:06.271Z,14.90
2019-01-31T02:33:50.683Z,14.90
2019-01-31T02:36:32.273Z,15.10
2019-01-31T02:39:14.083Z,12.73
2019-01-31T02:41:56.862Z,14.83
2019-01-31T02:44:38.782Z,16.97
2019-01-31T02:47:21.482Z,18.27
2019-01-31T02:50:03.872Z,15.20
2019-01-31T02:52:46.222Z,14.87
2019-01-31T02:55:28.892Z,15.20
2019-01-31T02:58:11.131Z,15.83
2019-01-31T03:00:52.901Z,17.80
2019-01-31T03:03:34.721Z,14.83
2019-01-31T03:06:17.402Z,16.03
2019-01-31T03:09:01.737Z,16.07
2019-01-31T03:11:44.372Z,17.10
2019-01-31T03:14:27.472Z,16.40
2019-01-31T03:17:05.632Z,16.13
2019-01-31T03:19:37.696Z,17.43
2019-01-31T03:22:27.473Z,16.53
2019-01-31T03:25:05.082Z,14.90
2019-01-31T03:27:52.020Z,14.90
2019-01-31T03:30:53.973Z,16.20
2019-01-31T03:33:42.492Z,16.37
2019-01-31T03:36:23.672Z,15.90
2019-01-31T03:39:01.671Z,14.67
2019-01-31T03:41:50.125Z,15.30
2019-01-31T03:44:33.717Z,15.77
2019-01-31T03:47:11.482Z,15.10
2019-01-31T03:49:43.573Z,14.90
2019-01-31T03:52:49.993Z,15.77
2019-01-31T03:55:27.732Z,15.47
2019-01-31T03:58:26.509Z,15.80
2019-01-31T04:01:14.920Z,16.73
2019-01-31T04:03:52.622Z,16.47
2019-01-31T04:06:23.123Z,15.60
2019-01-31T04:08:52.032Z,15.80
2019-01-31T04:11:22.633Z,15.47
2019-01-31T04:13:51.540Z,16.10
2019-01-31T04:16:20.469Z,16.90
2019-01-31T04:18:49.383Z,16.70
2019-01-31T04:21:18.404Z,15.40
2019-01-31T04:23:47.348Z,16.90
2019-01-31T04:26:16.278Z,14.67
2019-01-31T04:28:45.155Z,15.17
2019-01-31T04:31:14.067Z,16.03
2019-01-31T04:33:43.022Z,15.13
2019-01-31T04:36:11.923Z,16.90
2019-01-31T04:38:40.813Z,16.77
2019-01-31T04:41:09.801Z,14.63
2019-01-31T04:43:54.225Z,15.50
2019-01-31T04:46:23.454Z,15.20
2019-01-31T04:48:52.642Z,15.93
2019-01-31T04:51:22.055Z,14.60
2019-01-31T04:53:51.092Z,14.57
2019-01-31T04:56:20.311Z,14.83
2019-01-31T04:58:49.214Z,14.23
2019-01-31T05:01:18.118Z,14.87
2019-01-31T05:03:47.053Z,15.17
2019-01-31T05:06:15.970Z,13.30
2019-01-31T05:08:44.933Z,12.10
2019-01-31T05:11:13.823Z,13.60
2019-01-31T05:13:42.735Z,12.93
2019-01-31T05:16:11.648Z,15.30
2019-01-31T05:18:40.523Z,12.93
2019-01-31T05:21:09.447Z,13.00
2019-01-31T05:23:38.381Z,12.50
2019-01-31T05:26:07.288Z,12.63
2019-01-31T05:28:36.251Z,10.40
2019-01-31T05:31:05.391Z,11.23
2019-01-31T05:33:34.901Z,11.20
2019-01-31T05:36:04.302Z,11.73
2019-01-31T05:38:33.201Z,10.00
2019-01-31T05:41:02.155Z,10.63
2019-01-31T05:43:31.007Z,9.57
2019-01-31T05:45:59.969Z,10.13
2019-01-31T05:48:28.882Z,9.50
2019-01-31T05:50:57.808Z,10.90
2019-01-31T05:53:27.039Z,9.73
2019-01-31T05:55:55.985Z,10.57
2019-01-31T05:58:24.846Z,9.20
2019-01-31T06:00:53.767Z,9.43
2019-01-31T06:03:22.676Z,10.67
2019-01-31T06:05:51.557Z,8.60
2019-01-31T06:08:20.562Z,8.00
2019-01-31T06:10:49.544Z,9.30
2019-01-31T06:13:18.497Z,7.80
2019-01-31T06:15:47.789Z,7.73
2019-01-31T06:18:32.774Z,8.37
2019-01-31T06:21:01.925Z,8.50
2019-01-31T06:23:30.768Z,8.20
2019-01-31T06:25:59.667Z,9.07
2019-01-31T06:28:28.573Z,9.00
2019-01-31T06:30:57.492Z,8.47
2019-01-31T06:33:28.401Z,7.90
2019-01-31T06:35:57.022Z,7.93
2019-01-31T06:38:26.042Z,8.30
2019-01-31T06:40:55.014Z,8.40
2019-01-31T06:43:24.461Z,8.10
2019-01-31T06:45:56.219Z,7.50
2019-01-31T06:48:24.841Z,8.20
2019-01-31T06:50:54.151Z,7.87
2019-01-31T06:53:23.572Z,9.07
2019-01-31T06:55:53.041Z,7.73
2019-01-31T06:58:22.371Z,8.43
2019-01-31T07:00:51.541Z,7.83
2019-01-31T07:03:20.704Z,8.70
2019-01-31T07:05:49.601Z,8.53
2019-01-31T07:08:18.511Z,7.43
2019-01-31T07:10:47.456Z,8.03
2019-01-31T07:13:16.291Z,7.80
2019-01-31T07:15:45.268Z,7.70
2019-01-31T07:18:14.471Z,7.40
2019-01-31T07:20:43.732Z,7.37
2019-01-31T07:23:13.181Z,7.07
2019-01-31T07:25:42.842Z,7.57
2019-01-31T07:28:12.181Z,7.70
2019-01-31T07:30:41.592Z,6.93
2019-01-31T07:33:10.851Z,7.93
2019-01-31T07:35:40.176Z,10.27
2019-01-31T07:38:09.481Z,10.67
2019-01-31T07:40:38.861Z,9.93
2019-01-31T07:43:08.281Z,9.10
2019-01-31T07:45:37.401Z,10.33
2019-01-31T07:48:07.135Z,9.13
2019-01-31T07:50:36.291Z,10.37
2019-01-31T07:53:12.834Z,11.13
2019-01-31T07:55:40.861Z,13.33
2019-01-31T07:58:10.111Z,13.10
2019-01-31T08:00:39.271Z,13.27
2019-01-31T08:03:08.564Z,13.30
2019-01-31T08:05:37.794Z,13.23
2019-01-31T08:08:07.264Z,13.67
2019-01-31T08:10:38.994Z,12.80
2019-01-31T08:13:08.384Z,13.07
2019-01-31T08:15:37.694Z,12.67
2019-01-31T08:18:07.064Z,12.50
2019-01-31T08:20:36.356Z,11.53
2019-01-31T08:23:06.275Z,11.80
2019-01-31T08:25:35.525Z,12.93
2019-01-31T08:28:05.874Z,12.23
2019-01-31T08:30:38.048Z,12.63
2019-01-31T08:33:07.640Z,11.30
2019-01-31T08:35:37.097Z,10.97
2019-01-31T08:38:06.217Z,10.53
2019-01-31T08:40:35.660Z,11.07
2019-01-31T08:43:05.684Z,10.63
2019-01-31T08:45:34.834Z,9.30
2019-01-31T08:48:04.285Z,9.67
2019-01-31T08:50:33.835Z,8.70
2019-01-31T08:53:03.114Z,8.93
2019-01-31T08:55:32.084Z,11.53
2019-01-31T08:58:00.964Z,9.60
2019-01-31T09:00:31.329Z,10.87
2019-01-31T09:03:00.619Z,13.33
2019-01-31T09:05:29.618Z,12.90
2019-01-31T09:07:58.648Z,13.67
2019-01-31T09:10:33.142Z,13.97
2019-01-31T09:13:03.477Z,14.37
2019-01-31T09:15:32.460Z,13.30
2019-01-31T09:18:01.428Z,13.33
2019-01-31T09:20:36.483Z,15.00
2019-01-31T09:23:19.976Z,18.73
2019-01-31T09:26:13.104Z,15.77
2019-01-31T09:29:03.057Z,19.77
2019-01-31T09:31:37.750Z,22.93
2019-01-31T09:34:24.478Z,25.73
2019-01-31T09:37:12.852Z,25.37
2019-01-31T09:39:47.689Z,25.70
2019-01-31T09:42:26.717Z,26.20
2019-01-31T09:45:12.226Z,24.83
2019-01-31T09:47:47.059Z,25.40
2019-01-31T09:50:30.646Z,25.57
2019-01-31T09:53:17.289Z,25.07
2019-01-31T09:55:49.151Z,25.60
2019-01-31T09:58:21.062Z,25.90
2019-01-31T10:01:07.508Z,24.40
2019-01-31T10:03:54.158Z,25.50
2019-01-31T10:06:37.851Z,24.13
2019-01-31T10:09:16.028Z,24.97
2019-01-31T10:12:05.982Z,22.80
2019-01-31T10:14:40.771Z,23.00
2019-01-31T10:17:30.701Z,21.93
2019-01-31T10:20:31.392Z,21.00
2019-01-31T10:23:28.793Z,21.60
2019-01-31T10:26:12.951Z,22.57
2019-01-31T10:29:01.993Z,22.27
2019-01-31T10:31:33.632Z,21.50
2019-01-31T10:34:31.362Z,22.30
2019-01-31T10:37:11.991Z,20.63
2019-01-31T10:39:55.741Z,21.20
2019-01-31T10:42:33.612Z,22.70
2019-01-31T10:45:31.072Z,23.03
2019-01-31T10:48:23.621Z,21.03
2019-01-31T10:51:01.581Z,22.63
2019-01-31T10:53:51.043Z,23.00
2019-01-31T10:56:49.662Z,21.97
2019-01-31T10:59:24.512Z,22.00
2019-01-31T11:02:18.602Z,22.93
2019-01-31T11:05:16.242Z,23.70
2019-01-31T11:07:50.991Z,21.83
2019-01-31T11:10:39.392Z,20.80
2019-01-31T11:13:23.062Z,22.37
2019-01-31T11:16:12.831Z,23.60
2019-01-31T11:19:12.427Z,22.90
2019-01-31T11:21:56.779Z,21.50
2019-01-31T11:24:37.225Z,21.60
2019-01-31T11:27:23.801Z,19.47
2019-01-31T11:30:21.060Z,20.03
2019-01-31T11:33:10.312Z,19.13
2019-01-31T11:36:14.714Z,22.03
2019-01-31T11:38:46.594Z,22.90
2019-01-31T11:41:39.313Z,22.90
2019-01-31T11:44:30.244Z,22.50
2019-01-31T11:47:10.494Z,23.40
2019-01-31T11:49:53.880Z,23.17
2019-01-31T11:52:53.460Z,24.20
2019-01-31T11:55:28.125Z,24.40
2019-01-31T11:58:02.795Z,26.83
2019-01-31T12:00:31.634Z,24.40
2019-01-31T12:03:00.593Z,25.97
2019-01-31T12:05:29.448Z,25.07
2019-01-31T12:07:58.319Z,24.57
2019-01-31T12:10:27.247Z,24.77
2019-01-31T12:12:56.137Z,24.00
2019-01-31T12:15:25.143Z,23.23
2019-01-31T12:17:54.101Z,23.73
2019-01-31T12:20:23.431Z,23.87
2019-01-31T12:22:52.771Z,22.97
2019-01-31T12:25:22.146Z,23.00
2019-01-31T12:27:51.292Z,23.93
2019-01-31T12:30:26.021Z,25.13
2019-01-31T12:32:55.222Z,23.80
2019-01-31T12:35:24.561Z,22.70
2019-01-31T12:37:53.831Z,24.83
2019-01-31T12:40:23.321Z,23.67
2019-01-31T12:42:52.571Z,24.73
2019-01-31T12:45:22.122Z,23.30
2019-01-31T12:47:51.641Z,22.77
2019-01-31T12:50:25.462Z,21.60
2019-01-31T12:52:54.532Z,20.60
2019-01-31T12:55:23.759Z,21.67
2019-01-31T12:57:53.273Z,20.63
2019-01-31T13:00:25.023Z,22.73
2019-01-31T13:02:54.302Z,22.03
2019-01-31T13:05:23.833Z,22.27
2019-01-31T13:07:53.062Z,22.63
2019-01-31T13:10:22.245Z,23.50
2019-01-31T13:12:52.174Z,24.10
2019-01-31T13:15:21.433Z,23.83
2019-01-31T13:17:50.563Z,24.37
2019-01-31T13:20:22.253Z,25.47
2019-01-31T13:22:54.132Z,21.80
2019-01-31T13:25:32.628Z,24.53
2019-01-31T13:28:01.933Z,24.93
2019-01-31T13:30:30.913Z,23.20
2019-01-31T13:32:59.834Z,24.57
2019-01-31T13:35:28.878Z,25.87
2019-01-31T13:37:57.816Z,26.57
2019-01-31T13:40:27.383Z,24.73
2019-01-31T13:42:56.603Z,24.70
2019-01-31T13:45:30.598Z,24.77
2019-01-31T13:48:01.917Z,24.77
2019-01-31T13:50:31.766Z,24.27
2019-01-31T13:53:00.826Z,24.67
2019-01-31T13:55:31.825Z,20.67
2019-01-31T13:58:00.732Z,22.07
2019-01-31T14:00:30.054Z,22.73
2019-01-31T14:02:59.134Z,21.83
2019-01-31T14:05:29.965Z,22.83
2019-01-31T14:07:59.538Z,22.80
2019-01-31T14:10:28.701Z,21.43
2019-01-31T14:12:59.441Z,22.13
2019-01-31T14:15:34.176Z,21.73
2019-01-31T14:18:03.451Z,22.03
2019-01-31T14:20:32.902Z,22.33
2019-01-31T14:23:02.321Z,21.80
2019-01-31T14:25:31.541Z,22.13
2019-01-31T14:28:01.012Z,23.83
2019-01-31T14:30:35.553Z,23.03
2019-01-31T14:33:06.843Z,23.13
2019-01-31T14:35:35.774Z,21.53
2019-01-31T14:38:05.169Z,21.63
2019-01-31T14:40:34.046Z,22.77
2019-01-31T14:43:03.275Z,21.10
2019-01-31T14:45:32.741Z,20.13
2019-01-31T14:48:01.697Z,21.20
2019-01-31T14:50:32.692Z,19.13
2019-01-31T14:53:02.175Z,21.73
2019-01-31T14:55:31.216Z,22.20
2019-01-31T14:58:00.115Z,21.70
2019-01-31T15:00:42.001Z,21.20
2019-01-31T15:03:10.870Z,23.00
2019-01-31T15:05:39.828Z,22.77
2019-01-31T15:08:08.764Z,22.87
2019-01-31T15:10:37.729Z,22.97
2019-01-31T15:13:06.922Z,22.53
2019-01-31T15:15:35.950Z,21.03
2019-01-31T15:18:06.218Z,22.53
2019-01-31T15:20:40.892Z,21.93
2019-01-31T15:23:09.898Z,22.07
2019-01-31T15:25:38.843Z,21.93
2019-01-31T15:28:07.901Z,23.53
2019-01-31T15:30:37.528Z,25.20
2019-01-31T15:33:09.356Z,24.07
2019-01-31T15:35:38.348Z,22.93
2019-01-31T15:38:07.586Z,24.23
2019-01-31T15:40:45.042Z,24.00
2019-01-31T15:43:14.552Z,26.17
2019-01-31T15:45:43.901Z,24.30
2019-01-31T15:48:28.301Z,22.27
2019-01-31T15:50:57.379Z,25.27
2019-01-31T15:53:26.369Z,25.23
2019-01-31T15:55:55.348Z,24.37
2019-01-31T15:58:24.375Z,26.87
2019-01-31T16:00:53.629Z,25.33
2019-01-31T16:03:22.677Z,27.23
2019-01-31T16:05:51.821Z,28.37
2019-01-31T16:08:20.885Z,26.37
2019-01-31T16:10:49.917Z,25.43
2019-01-31T16:13:19.034Z,26.33
2019-01-31T16:15:48.226Z,28.23
2019-01-31T16:18:17.426Z,27.93
2019-01-31T16:20:46.538Z,28.03
2019-01-31T16:23:15.779Z,28.60
2019-01-31T16:25:47.658Z,29.10
2019-01-31T16:28:15.609Z,30.17
2019-01-31T16:30:44.488Z,28.97
2019-01-31T16:33:13.466Z,27.57
2019-01-31T16:35:44.832Z,25.57
2019-01-31T16:38:14.451Z,29.00
2019-01-31T16:40:44.101Z,26.43
2019-01-31T16:43:13.702Z,26.83
2019-01-31T16:45:46.076Z,27.27
2019-01-31T16:48:14.843Z,28.20
2019-01-31T16:50:44.412Z,28.20
2019-01-31T16:53:14.052Z,28.73
2019-01-31T16:55:43.604Z,29.63
2019-01-31T16:58:13.252Z,30.07
2019-01-31T17:00:42.591Z,28.73
2019-01-31T17:03:13.155Z,30.60
2019-01-31T17:05:42.582Z,29.23
2019-01-31T17:08:11.934Z,27.83
2019-01-31T17:10:41.231Z,29.73
2019-01-31T17:13:10.702Z,30.73
2019-01-31T17:15:39.685Z,28.27
2019-01-31T17:18:09.031Z,28.63
2019-01-31T17:20:40.684Z,26.57
2019-01-31T17:23:12.752Z,27.67
2019-01-31T17:25:42.143Z,27.83
2019-01-31T17:28:11.742Z,25.70
2019-01-31T17:30:41.276Z,27.43
2019-01-31T17:33:10.455Z,28.20
2019-01-31T17:35:39.362Z,24.67
2019-01-31T17:38:08.620Z,26.50
2019-01-31T17:40:38.575Z,23.03
2019-01-31T17:43:08.440Z,25.03
2019-01-31T17:45:37.428Z,29.40
2019-01-31T17:48:07.199Z,28.13
2019-01-31T17:50:36.257Z,25.33
2019-01-31T17:53:05.420Z,26.50
2019-01-31T17:55:34.542Z,25.63
2019-01-31T17:58:03.458Z,24.37
2019-01-31T18:00:39.198Z,25.00
2019-01-31T18:03:09.898Z,24.93
2019-01-31T18:05:38.787Z,26.17
2019-01-31T18:08:09.281Z,25.80
2019-01-31T18:10:39.198Z,22.63
2019-01-31T18:13:08.712Z,26.87
2019-01-31T18:15:42.052Z,26.60
2019-01-31T18:18:09.583Z,26.63
2019-01-31T18:20:39.092Z,21.90
2019-01-31T18:23:08.481Z,27.53
2019-01-31T18:25:38.592Z,26.57
2019-01-31T18:28:07.882Z,27.10
2019-01-31T18:30:38.522Z,25.37
2019-01-31T18:33:07.995Z,24.97
2019-01-31T18:35:37.351Z,29.00
2019-01-31T18:38:06.892Z,29.00
2019-01-31T18:40:36.573Z,27.73
2019-01-31T18:43:06.334Z,26.53
2019-01-31T18:45:36.647Z,26.07
2019-01-31T18:48:07.112Z,28.03
2019-01-31T18:50:38.804Z,28.27
2019-01-31T18:53:08.082Z,26.93
2019-01-31T18:55:37.522Z,27.03
2019-01-31T18:58:07.302Z,22.80
2019-01-31T19:00:42.142Z,26.60
2019-01-31T19:03:11.802Z,23.97
2019-01-31T19:05:41.573Z,24.40
2019-01-31T19:08:11.172Z,23.60
2019-01-31T19:10:43.979Z,23.67
2019-01-31T19:13:11.613Z,23.70
2019-01-31T19:15:40.921Z,20.73
2019-01-31T19:18:10.422Z,20.03
2019-01-31T19:20:40.154Z,22.20
2019-01-31T19:23:09.862Z,25.20
2019-01-31T19:25:39.612Z,24.83
2019-01-31T19:28:09.022Z,23.03
2019-01-31T19:30:40.174Z,21.23
2019-01-31T19:33:09.932Z,19.37
2019-01-31T19:35:39.371Z,21.10
2019-01-31T19:38:08.952Z,22.47
2019-01-31T19:40:40.575Z,23.10
2019-01-31T19:43:18.823Z,23.30
2019-01-31T19:45:49.253Z,20.80
2019-01-31T19:48:18.652Z,23.83
2019-01-31T19:50:48.092Z,22.07
2019-01-31T19:53:17.642Z,21.17
2019-01-31T19:55:47.232Z,19.93
2019-01-31T19:58:16.547Z,23.33
2019-01-31T20:00:46.062Z,20.10
2019-01-31T20:03:15.598Z,21.47
2019-01-31T20:05:45.022Z,22.13
2019-01-31T20:08:14.440Z,22.40
2019-01-31T20:10:44.254Z,21.17
2019-01-31T20:13:13.862Z,20.03
2019-01-31T20:15:43.472Z,19.77
2019-01-31T20:18:14.132Z,19.60
2019-01-31T20:20:43.403Z,22.20
2019-01-31T20:23:13.133Z,18.47
2019-01-31T20:25:42.762Z,21.50
2019-01-31T20:28:12.432Z,20.80
2019-01-31T20:30:41.652Z,18.30
2019-01-31T20:33:10.585Z,20.33
2019-01-31T20:35:39.690Z,19.93
2019-01-31T20:38:08.718Z,20.50
2019-01-31T20:40:41.087Z,21.47
2019-01-31T20:43:10.553Z,19.67
2019-01-31T20:45:39.737Z,18.87
2019-01-31T20:48:08.804Z,21.37
2019-01-31T20:50:39.787Z,19.47
2019-01-31T20:53:09.089Z,19.03
2019-01-31T20:55:38.268Z,18.57
2019-01-31T20:58:07.437Z,19.00
2019-01-31T21:00:41.443Z,19.40
2019-01-31T21:03:10.850Z,19.07
2019-01-31T21:05:40.163Z,19.13
2019-01-31T21:08:09.879Z,18.60
2019-01-31T21:10:38.911Z,19.57
2019-01-31T21:13:08.611Z,18.73
2019-01-31T21:15:37.838Z,17.67
2019-01-31T21:18:07.181Z,18.27
2019-01-31T21:20:37.092Z,18.33
2019-01-31T21:23:07.312Z,16.60
2019-01-31T21:25:36.902Z,17.00
2019-01-31T21:28:06.462Z,16.27
2019-01-31T21:30:39.752Z,18.70
2019-01-31T21:33:09.242Z,16.90
2019-01-31T21:35:38.941Z,17.90
2019-01-31T21:38:08.402Z,16.10
2019-01-31T21:40:37.872Z,18.63
2019-01-31T21:43:07.564Z,17.43
2019-01-31T21:45:37.215Z,19.20
2019-01-31T21:48:07.381Z,17.30
2019-01-31T21:50:36.882Z,17.40
2019-01-31T21:53:06.541Z,18.43
2019-01-31T21:55:35.692Z,18.57
2019-01-31T21:58:05.092Z,17.57
2019-01-31T22:00:36.501Z,18.13
2019-01-31T22:03:06.512Z,17.47
2019-01-31T22:05:35.386Z,17.90
2019-01-31T22:08:04.728Z,16.83
2019-01-31T22:10:33.786Z,17.80
2019-01-31T22:13:03.022Z,16.73
2019-01-31T22:15:34.564Z,14.87
2019-01-31T22:18:03.856Z,17.03
2019-01-31T22:20:32.733Z,17.23
2019-01-31T22:23:01.690Z,17.63
2019-01-31T22:25:30.658Z,17.15
2019-01-31T22:27:59.581Z,15.83
2019-01-31T22:30:30.782Z,18.47
2019-01-31T22:32:59.708Z,17.77
2019-01-31T22:35:28.793Z,17.33
2019-01-31T22:37:57.816Z,15.53
2019-01-31T22:40:26.823Z,15.80
2019-01-31T22:42:55.839Z,16.37
2019-01-31T22:45:25.160Z,16.93
2019-01-31T22:47:54.189Z,16.67
2019-01-31T22:50:23.999Z,16.10
2019-01-31T22:52:52.906Z,16.10
2019-01-31T22:55:26.515Z,15.80
2019-01-31T22:57:55.687Z,15.43
2019-01-31T23:00:56.415Z,16.33
2019-01-31T23:03:25.437Z,16.00
2019-01-31T23:05:54.355Z,14.67
2019-01-31T23:08:23.206Z,15.03
2019-01-31T23:10:52.187Z,17.00
2019-01-31T23:13:21.125Z,14.43
2019-01-31T23:15:50.013Z,14.67
2019-01-31T23:18:18.969Z,16.23
2019-01-31T23:20:48.048Z,16.13
2019-01-31T23:23:16.986Z,15.10
2019-01-31T23:25:45.957Z,18.50
2019-01-31T23:28:14.930Z,17.87
2019-01-31T23:30:43.787Z,17.13
2019-01-31T23:33:13.626Z,17.80
2019-01-31T23:35:42.513Z,17.00
2019-01-31T23:38:11.968Z,15.93
2019-01-31T23:40:40.940Z,16.50
2019-01-31T23:43:10.302Z,15.90
2019-01-31T23:45:39.591Z,19.33
2019-01-31T23:48:08.761Z,18.70
2019-01-31T23:50:37.992Z,18.13
2019-01-31T23:53:07.332Z,17.30
2019-01-31T23:55:36.591Z,18.03
2019-01-31T23:58:05.681Z,19.10
